createdAt,value
2019-02-11T00:00:34.825Z,1.40
2019-02-11T00:03:01.417Z,1.07
2019-02-11T00:05:27.873Z,1.30
2019-02-11T00:07:54.255Z,1.40
2019-02-11T00:10:20.532Z,1.30
2019-02-11T00:12:46.797Z,1.30
2019-02-11T00:15:13.251Z,1.70
2019-02-11T00:17:39.633Z,1.60
2019-02-11T00:20:06.193Z,1.60
2019-02-11T00:22:32.461Z,1.87
2019-02-11T00:24:58.733Z,1.93
2019-02-11T00:27:25.123Z,2.00
2019-02-11T00:29:51.373Z,2.17
2019-02-11T00:32:17.667Z,2.00
2019-02-11T00:34:44.114Z,2.00
2019-02-11T00:37:10.415Z,2.13
2019-02-11T00:39:36.723Z,1.90
2019-02-11T00:42:03.190Z,2.10
2019-02-11T00:44:29.569Z,2.30
2019-02-11T00:46:55.966Z,2.43
2019-02-11T00:49:22.221Z,2.43
2019-02-11T00:51:48.564Z,1.97
2019-02-11T00:54:14.828Z,2.10
2019-02-11T00:56:41.100Z,2.23
2019-02-11T00:59:07.511Z,2.40
2019-02-11T01:01:33.746Z,2.70
2019-02-11T01:03:59.993Z,2.43
2019-02-11T01:06:26.383Z,2.70
2019-02-11T01:08:52.738Z,2.43
2019-02-11T01:11:19.134Z,2.47
2019-02-11T01:13:45.511Z,2.30
2019-02-11T01:16:11.865Z,2.50
2019-02-11T01:18:38.149Z,2.67
2019-02-11T01:21:04.671Z,2.53
2019-02-11T01:23:30.974Z,2.60
2019-02-11T01:25:57.317Z,2.63
2019-02-11T01:28:23.785Z,2.73
2019-02-11T01:30:50.144Z,2.87
2019-02-11T01:33:16.541Z,2.80
2019-02-11T01:35:42.785Z,2.80
2019-02-11T01:38:09.133Z,2.67
2019-02-11T01:40:35.417Z,2.30
2019-02-11T01:43:01.703Z,2.97
2019-02-11T01:45:27.946Z,2.47
2019-02-11T01:47:54.305Z,2.43
2019-02-11T01:50:20.755Z,2.23
2019-02-11T01:52:47.073Z,2.70
2019-02-11T01:55:13.439Z,2.20
2019-02-11T01:57:45.097Z,2.40
2019-02-11T02:00:12.510Z,2.47
2019-02-11T02:02:43.099Z,2.10
2019-02-11T02:05:09.607Z,2.70
2019-02-11T02:07:36.126Z,2.40
2019-02-11T02:10:08.144Z,2.47
2019-02-11T02:12:34.413Z,2.63
2019-02-11T02:15:00.678Z,2.40
2019-02-11T02:17:26.963Z,2.53
2019-02-11T02:19:53.215Z,2.30
2019-02-11T02:22:19.519Z,2.33
2019-02-11T02:24:45.971Z,2.17
2019-02-11T02:27:12.355Z,2.30
2019-02-11T02:29:38.625Z,2.40
2019-02-11T02:32:04.973Z,2.10
2019-02-11T02:34:31.276Z,2.00
2019-02-11T02:36:57.636Z,2.13
2019-02-11T02:39:24.005Z,2.60
2019-02-11T02:41:50.790Z,2.30
2019-02-11T02:44:17.340Z,2.20
2019-02-11T02:46:43.817Z,2.43
2019-02-11T02:49:10.087Z,2.63
2019-02-11T02:51:36.431Z,2.20
2019-02-11T02:54:02.949Z,2.20
2019-02-11T02:56:29.382Z,2.30
2019-02-11T02:58:56.034Z,2.40
2019-02-11T03:01:22.504Z,2.50
2019-02-11T03:03:48.920Z,2.73
2019-02-11T03:06:15.479Z,2.33
2019-02-11T03:08:41.841Z,3.10
2019-02-11T03:11:08.310Z,2.77
2019-02-11T03:13:34.735Z,2.40
2019-02-11T03:16:01.195Z,2.80
2019-02-11T03:18:27.640Z,2.57
2019-02-11T03:20:54.164Z,2.57
2019-02-11T03:23:20.503Z,2.70
2019-02-11T03:25:46.779Z,2.83
2019-02-11T03:28:13.285Z,2.60
2019-02-11T03:30:39.666Z,2.93
2019-02-11T03:33:06.227Z,2.60
2019-02-11T03:35:32.603Z,2.70
2019-02-11T03:37:58.924Z,2.53
2019-02-11T03:40:25.296Z,2.67
2019-02-11T03:42:51.673Z,2.63
2019-02-11T03:45:18.209Z,2.47
2019-02-11T03:47:44.716Z,2.27
2019-02-11T03:50:11.246Z,2.40
2019-02-11T03:52:37.751Z,2.23
2019-02-11T03:55:05.012Z,2.47
2019-02-11T03:57:31.491Z,2.30
2019-02-11T03:59:58.034Z,2.13
2019-02-11T04:02:24.629Z,2.47
2019-02-11T04:04:51.163Z,3.10
2019-02-11T04:07:17.650Z,2.77
2019-02-11T04:09:44.200Z,3.07
2019-02-11T04:12:10.607Z,2.90
2019-02-11T04:14:37.099Z,3.17
2019-02-11T04:17:03.620Z,2.60
2019-02-11T04:19:30.090Z,2.87
2019-02-11T04:22:04.975Z,3.03
2019-02-11T04:24:31.493Z,3.00
2019-02-11T04:26:58.000Z,2.87
2019-02-11T04:29:24.423Z,2.70
2019-02-11T04:31:51.094Z,3.10
2019-02-11T04:34:17.441Z,3.00
2019-02-11T04:36:43.818Z,3.17
2019-02-11T04:39:10.237Z,3.10
2019-02-11T04:41:36.538Z,2.90
2019-02-11T04:44:03.049Z,2.90
2019-02-11T04:46:29.326Z,2.70
2019-02-11T04:48:55.725Z,2.80
2019-02-11T04:51:22.102Z,3.07
2019-02-11T04:53:48.612Z,2.80
2019-02-11T04:56:14.981Z,2.90
2019-02-11T04:58:41.435Z,2.83
2019-02-11T05:01:07.917Z,2.60
2019-02-11T05:03:34.302Z,2.60
2019-02-11T05:06:00.700Z,2.73
2019-02-11T05:08:27.180Z,2.60
2019-02-11T05:10:53.601Z,2.73
2019-02-11T05:13:19.970Z,2.03
2019-02-11T05:15:46.389Z,2.60
2019-02-11T05:18:12.887Z,2.40
2019-02-11T05:20:39.365Z,2.80
2019-02-11T05:23:05.902Z,2.43
2019-02-11T05:25:32.277Z,2.47
2019-02-11T05:27:58.731Z,2.37
2019-02-11T05:30:25.105Z,2.40
2019-02-11T05:32:51.651Z,2.70
2019-02-11T05:35:18.170Z,2.50
2019-02-11T05:37:44.709Z,2.20
2019-02-11T05:40:11.223Z,2.47
2019-02-11T05:42:37.712Z,2.40
2019-02-11T05:45:06.179Z,3.00
2019-02-11T05:47:32.646Z,2.80
2019-02-11T05:49:59.079Z,2.53
2019-02-11T05:52:25.622Z,2.67
2019-02-11T05:54:52.009Z,2.70
2019-02-11T05:57:18.467Z,2.63
2019-02-11T05:59:44.882Z,2.50
2019-02-11T06:02:12.475Z,3.03
2019-02-11T06:04:38.857Z,2.67
2019-02-11T06:07:05.382Z,2.83
2019-02-11T06:09:31.883Z,2.87
2019-02-11T06:11:58.164Z,2.80
2019-02-11T06:14:24.482Z,2.57
2019-02-11T06:16:51.082Z,2.53
2019-02-11T06:19:17.554Z,2.50
2019-02-11T06:21:44.099Z,2.30
2019-02-11T06:24:10.608Z,2.50
2019-02-11T06:26:37.132Z,2.67
2019-02-11T06:29:03.437Z,2.70
2019-02-11T06:31:30.717Z,2.40
2019-02-11T06:33:57.143Z,2.83
2019-02-11T06:36:23.682Z,2.40
2019-02-11T06:38:50.146Z,3.00
2019-02-11T06:41:16.669Z,2.27
2019-02-11T06:43:43.204Z,2.30
2019-02-11T06:46:09.692Z,2.77
2019-02-11T06:48:36.023Z,3.27
2019-02-11T06:51:02.550Z,2.53
2019-02-11T06:53:29.071Z,2.77
2019-02-11T06:55:55.550Z,2.47
2019-02-11T06:58:21.990Z,2.97
2019-02-11T07:00:48.410Z,2.80
2019-02-11T07:03:14.774Z,2.37
2019-02-11T07:05:41.215Z,2.33
2019-02-11T07:08:08.077Z,2.40
2019-02-11T07:10:34.658Z,2.90
2019-02-11T07:13:01.103Z,3.23
2019-02-11T07:15:27.553Z,2.60
2019-02-11T07:17:54.043Z,2.67
2019-02-11T07:20:20.568Z,2.53
2019-02-11T07:22:47.009Z,2.80
2019-02-11T07:25:13.569Z,2.50
2019-02-11T07:27:40.245Z,2.73
2019-02-11T07:30:09.806Z,2.70
2019-02-11T07:32:36.217Z,3.00
2019-02-11T07:35:03.713Z,3.03
2019-02-11T07:37:30.230Z,2.97
2019-02-11T07:39:56.629Z,3.20
2019-02-11T07:42:25.004Z,2.80
2019-02-11T07:44:53.195Z,2.67
2019-02-11T07:47:19.638Z,3.00
2019-02-11T07:49:46.248Z,2.97
2019-02-11T07:52:12.713Z,2.70
2019-02-11T07:54:39.143Z,2.87
2019-02-11T07:57:05.564Z,2.60
2019-02-11T07:59:31.990Z,2.60
2019-02-11T08:01:58.521Z,3.27
2019-02-11T08:04:24.813Z,2.90
2019-02-11T08:06:51.445Z,2.97
2019-02-11T08:09:17.947Z,2.70
2019-02-11T08:11:44.320Z,2.70
2019-02-11T08:14:10.718Z,2.47
2019-02-11T08:16:37.137Z,2.73
2019-02-11T08:19:03.731Z,2.97
2019-02-11T08:21:30.031Z,2.80
2019-02-11T08:23:56.436Z,2.60
2019-02-11T08:26:23.120Z,2.80
2019-02-11T08:28:49.403Z,2.50
2019-02-11T08:31:15.897Z,2.77
2019-02-11T08:33:42.417Z,2.70
2019-02-11T08:36:08.818Z,2.97
2019-02-11T08:38:35.246Z,3.03
2019-02-11T08:41:01.755Z,3.30
2019-02-11T08:43:28.393Z,2.70
2019-02-11T08:45:54.878Z,2.47
2019-02-11T08:48:21.228Z,2.93
2019-02-11T08:50:47.601Z,2.40
2019-02-11T08:53:14.087Z,3.10
2019-02-11T08:55:40.439Z,3.13
2019-02-11T08:58:06.894Z,2.20
2019-02-11T09:00:33.606Z,2.60
2019-02-11T09:03:00.117Z,2.60
2019-02-11T09:05:26.501Z,2.43
2019-02-11T09:07:53.032Z,2.80
2019-02-11T09:10:19.519Z,2.23
2019-02-11T09:12:48.994Z,3.23
2019-02-11T09:15:15.441Z,2.80
2019-02-11T09:17:41.965Z,2.53
2019-02-11T09:20:09.733Z,2.70
2019-02-11T09:22:36.148Z,2.80
2019-02-11T09:25:04.088Z,2.57
2019-02-11T09:27:30.788Z,3.00
2019-02-11T09:29:57.591Z,2.70
2019-02-11T09:32:24.148Z,2.77
2019-02-11T09:34:50.602Z,2.83
2019-02-11T09:37:17.040Z,2.30
2019-02-11T09:39:43.421Z,2.70
2019-02-11T09:42:10.215Z,3.27
2019-02-11T09:44:36.764Z,2.60
2019-02-11T09:47:03.237Z,2.13
2019-02-11T09:49:29.705Z,2.10
2019-02-11T09:51:56.131Z,2.60
2019-02-11T09:54:22.429Z,2.87
2019-02-11T09:56:48.951Z,2.20
2019-02-11T09:59:15.479Z,2.10
2019-02-11T10:01:45.151Z,2.30
2019-02-11T10:04:11.468Z,2.13
2019-02-11T10:06:37.955Z,2.90
2019-02-11T10:09:05.420Z,2.73
2019-02-11T10:11:31.885Z,2.10
2019-02-11T10:13:58.498Z,2.23
2019-02-11T10:16:25.005Z,2.37
2019-02-11T10:18:51.494Z,2.50
2019-02-11T10:21:18.027Z,2.50
2019-02-11T10:23:44.609Z,2.30
2019-02-11T10:26:11.103Z,2.07
2019-02-11T10:28:37.517Z,2.20
2019-02-11T10:31:03.920Z,2.33
2019-02-11T10:33:30.321Z,2.00
2019-02-11T10:35:56.837Z,2.17
2019-02-11T10:38:23.215Z,2.10
2019-02-11T10:40:49.625Z,2.50
2019-02-11T10:43:16.109Z,3.20
2019-02-11T10:45:42.608Z,4.23
2019-02-11T10:48:09.112Z,3.50
2019-02-11T10:50:35.594Z,2.63
2019-02-11T10:53:02.138Z,2.77
2019-02-11T10:55:28.606Z,3.20
2019-02-11T10:57:55.233Z,2.90
2019-02-11T11:00:22.822Z,3.40
2019-02-11T11:02:49.290Z,2.40
2019-02-11T11:05:15.860Z,2.20
2019-02-11T11:07:42.364Z,2.60
2019-02-11T11:10:18.475Z,2.43
2019-02-11T11:12:44.985Z,2.20
2019-02-11T11:15:11.871Z,2.10
2019-02-11T11:17:38.249Z,2.37
2019-02-11T11:20:10.147Z,2.50
2019-02-11T11:22:36.587Z,2.63
2019-02-11T11:25:04.924Z,2.33
2019-02-11T11:27:31.427Z,2.33
2019-02-11T11:29:57.805Z,2.43
2019-02-11T11:32:24.359Z,2.33
2019-02-11T11:34:50.844Z,2.53
2019-02-11T11:37:17.399Z,2.50
2019-02-11T11:39:43.810Z,2.50
2019-02-11T11:42:10.319Z,2.33
2019-02-11T11:44:36.728Z,3.00
2019-02-11T11:47:04.483Z,2.83
2019-02-11T11:49:30.949Z,2.07
2019-02-11T11:51:57.372Z,2.67
2019-02-11T11:54:23.676Z,2.67
2019-02-11T11:56:50.329Z,2.37
2019-02-11T11:59:19.944Z,2.70
2019-02-11T12:01:46.418Z,2.40
2019-02-11T12:04:12.947Z,2.80
2019-02-11T12:06:39.418Z,2.67
2019-02-11T12:09:06.142Z,2.30
2019-02-11T12:11:32.527Z,2.50
2019-02-11T12:13:59.056Z,2.50
2019-02-11T12:16:25.581Z,2.40
2019-02-11T12:18:51.971Z,2.70
2019-02-11T12:21:18.408Z,2.90
2019-02-11T12:23:44.880Z,2.80
2019-02-11T12:26:11.426Z,2.83
2019-02-11T12:28:37.913Z,2.50
2019-02-11T12:31:04.333Z,2.50
2019-02-11T12:33:30.869Z,2.77
2019-02-11T12:35:57.381Z,2.80
2019-02-11T12:38:23.792Z,2.83
2019-02-11T12:40:50.141Z,2.90
2019-02-11T12:43:16.728Z,2.60
2019-02-11T12:45:43.210Z,3.00
2019-02-11T12:48:09.618Z,2.43
2019-02-11T12:50:35.922Z,2.37
2019-02-11T12:53:02.443Z,2.80
2019-02-11T12:55:28.848Z,2.67
2019-02-11T12:57:55.419Z,2.60
2019-02-11T13:00:22.869Z,2.50
2019-02-11T13:02:49.454Z,2.20
2019-02-11T13:05:16.197Z,2.60
2019-02-11T13:07:42.681Z,2.63
2019-02-11T13:10:12.879Z,2.30
2019-02-11T13:12:39.642Z,2.97
2019-02-11T13:15:08.227Z,2.90
2019-02-11T13:17:34.993Z,2.33
2019-02-11T13:20:08.536Z,3.03
2019-02-11T13:22:30.053Z,2.97
2019-02-11T13:24:56.625Z,3.20
2019-02-11T13:27:23.508Z,2.47
2019-02-11T13:29:50.010Z,2.27
2019-02-11T13:32:16.499Z,2.90
2019-02-11T13:34:42.863Z,3.00
2019-02-11T13:37:09.152Z,2.70
2019-02-11T13:39:35.670Z,2.60
2019-02-11T13:42:02.098Z,2.77
2019-02-11T13:44:28.655Z,2.70
2019-02-11T13:46:55.091Z,3.00
2019-02-11T13:49:21.729Z,3.20
2019-02-11T13:51:48.257Z,3.13
2019-02-11T13:54:17.610Z,3.00
2019-02-11T13:56:44.045Z,3.17
2019-02-11T13:59:10.746Z,2.87
2019-02-11T14:01:37.232Z,2.93
2019-02-11T14:04:03.619Z,3.40
2019-02-11T14:06:30.309Z,2.87
2019-02-11T14:08:56.653Z,5.47
2019-02-11T14:11:23.153Z,3.53
2019-02-11T14:14:01.356Z,6.23
2019-02-11T14:16:17.996Z,4.53
2019-02-11T14:18:44.409Z,4.50
2019-02-11T14:21:10.873Z,3.97
2019-02-11T14:23:37.303Z,4.00
2019-02-11T14:26:04.029Z,3.53
2019-02-11T14:28:30.547Z,3.70
2019-02-11T14:30:57.411Z,3.17
2019-02-11T14:33:23.961Z,2.90
2019-02-11T14:35:50.371Z,3.63
2019-02-11T14:38:16.838Z,3.47
2019-02-11T14:40:43.375Z,3.70
2019-02-11T14:43:09.890Z,2.80
2019-02-11T14:45:36.493Z,2.90
2019-02-11T14:48:03.189Z,3.00
2019-02-11T14:50:29.590Z,2.53
2019-02-11T14:52:56.111Z,3.43
2019-02-11T14:55:22.404Z,2.77
2019-02-11T14:57:48.853Z,2.93
2019-02-11T15:00:18.960Z,2.70
2019-02-11T15:02:45.641Z,2.97
2019-02-11T15:05:12.123Z,3.20
2019-02-11T15:07:38.546Z,2.80
2019-02-11T15:10:07.936Z,2.30
2019-02-11T15:12:34.446Z,2.97
2019-02-11T15:15:00.839Z,2.57
2019-02-11T15:17:27.338Z,2.50
2019-02-11T15:19:53.853Z,2.27
2019-02-11T15:22:20.416Z,2.70
2019-02-11T15:24:46.970Z,2.40
2019-02-11T15:27:17.359Z,2.40
2019-02-11T15:29:41.806Z,2.30
2019-02-11T15:32:08.331Z,2.17
2019-02-11T15:34:34.722Z,2.37
2019-02-11T15:37:01.135Z,2.67
2019-02-11T15:39:27.502Z,2.30
2019-02-11T15:41:54.049Z,2.30
2019-02-11T15:44:20.576Z,2.70
2019-02-11T15:46:47.009Z,2.53
2019-02-11T15:49:13.266Z,2.40
2019-02-11T15:51:39.770Z,2.67
2019-02-11T15:54:06.182Z,2.20
2019-02-11T15:56:32.749Z,3.50
2019-02-11T15:58:59.213Z,2.50
2019-02-11T16:01:25.641Z,2.57
2019-02-11T16:03:52.157Z,3.43
2019-02-11T16:06:18.658Z,2.10
2019-02-11T16:08:45.210Z,2.70
2019-02-11T16:11:11.722Z,2.90
2019-02-11T16:13:38.028Z,3.23
2019-02-11T16:16:04.432Z,3.10
2019-02-11T16:18:30.904Z,2.57
2019-02-11T16:20:57.189Z,2.83
2019-02-11T16:23:23.802Z,2.80
2019-02-11T16:25:50.321Z,2.53
2019-02-11T16:28:16.904Z,2.47
2019-02-11T16:30:43.233Z,2.67
2019-02-11T16:33:09.734Z,3.50
2019-02-11T16:35:36.137Z,2.97
2019-02-11T16:38:02.912Z,2.73
2019-02-11T16:40:29.877Z,2.63
2019-02-11T16:42:56.393Z,2.33
2019-02-11T16:45:23.027Z,3.70
2019-02-11T16:47:49.424Z,3.20
2019-02-11T16:50:15.935Z,3.07
2019-02-11T16:52:42.426Z,2.80
2019-02-11T16:55:10.028Z,3.23
2019-02-11T16:57:36.470Z,2.80
2019-02-11T17:00:06.283Z,2.97
2019-02-11T17:02:34.874Z,3.03
2019-02-11T17:05:01.389Z,3.87
2019-02-11T17:07:27.955Z,3.30
2019-02-11T17:09:54.629Z,3.43
2019-02-11T17:12:21.177Z,3.70
2019-02-11T17:14:47.559Z,2.97
2019-02-11T17:17:14.089Z,2.87
2019-02-11T17:19:40.606Z,2.70
2019-02-11T17:22:07.115Z,3.30
2019-02-11T17:24:33.684Z,2.60
2019-02-11T17:27:00.172Z,3.00
2019-02-11T17:29:27.195Z,3.30
2019-02-11T17:31:54.421Z,2.70
2019-02-11T17:34:20.937Z,2.80
2019-02-11T17:36:47.408Z,3.70
2019-02-11T17:39:13.932Z,5.43
2019-02-11T17:41:40.414Z,4.23
2019-02-11T17:44:06.918Z,4.10
2019-02-11T17:46:33.264Z,3.10
2019-02-11T17:48:59.981Z,3.10
2019-02-11T17:51:26.507Z,3.43
2019-02-11T17:53:53.091Z,3.47
2019-02-11T17:56:19.502Z,3.10
2019-02-11T17:58:46.082Z,3.33
2019-02-11T18:01:12.740Z,3.30
2019-02-11T18:03:39.224Z,2.90
2019-02-11T18:06:05.763Z,3.00
2019-02-11T18:08:32.426Z,2.83
2019-02-11T18:10:58.844Z,3.20
2019-02-11T18:13:25.165Z,3.23
2019-02-11T18:15:51.724Z,3.00
2019-02-11T18:18:18.256Z,3.20
2019-02-11T18:20:44.769Z,3.50
2019-02-11T18:23:11.285Z,4.93
2019-02-11T18:25:37.873Z,24.17
2019-02-11T18:28:04.293Z,43.50
2019-02-11T18:30:33.430Z,27.00
2019-02-11T18:32:59.959Z,16.40
2019-02-11T18:35:26.461Z,9.47
2019-02-11T18:37:52.839Z,7.10
2019-02-11T18:40:19.342Z,4.90
2019-02-11T18:42:45.840Z,4.87
2019-02-11T18:45:13.817Z,4.03
2019-02-11T18:47:40.344Z,4.40
2019-02-11T18:50:09.802Z,3.63
2019-02-11T18:52:36.288Z,3.73
2019-02-11T18:55:03.608Z,3.90
2019-02-11T18:57:30.416Z,4.20
2019-02-11T19:00:03.312Z,4.30
2019-02-11T19:02:29.889Z,4.40
2019-02-11T19:04:56.387Z,3.60
2019-02-11T19:07:22.977Z,3.93
2019-02-11T19:09:49.374Z,4.40
2019-02-11T19:12:15.798Z,3.93
2019-02-11T19:14:42.087Z,4.00
2019-02-11T19:17:08.661Z,4.00
2019-02-11T19:19:42.805Z,4.13
2019-02-11T19:22:03.413Z,4.60
2019-02-11T19:24:29.945Z,4.37
2019-02-11T19:26:56.514Z,4.20
2019-02-11T19:29:23.145Z,4.23
2019-02-11T19:31:49.468Z,3.87
2019-02-11T19:34:15.766Z,3.93
2019-02-11T19:36:42.172Z,4.23
2019-02-11T19:39:08.897Z,3.70
2019-02-11T19:41:35.384Z,3.70
2019-02-11T19:44:01.859Z,4.40
2019-02-11T19:46:28.494Z,4.23
2019-02-11T19:48:54.965Z,3.80
2019-02-11T19:51:21.421Z,4.17
2019-02-11T19:53:47.846Z,4.10
2019-02-11T19:56:14.396Z,3.97
2019-02-11T19:58:40.881Z,3.53
2019-02-11T20:01:07.434Z,4.27
2019-02-11T20:03:34.016Z,3.70
2019-02-11T20:06:00.540Z,3.83
2019-02-11T20:08:27.009Z,3.93
2019-02-11T20:10:53.627Z,4.20
2019-02-11T20:13:20.169Z,3.80
2019-02-11T20:15:47.222Z,4.10
2019-02-11T20:18:13.814Z,3.40
2019-02-11T20:20:40.375Z,4.23
2019-02-11T20:23:06.947Z,4.10
2019-02-11T20:25:33.531Z,3.77
2019-02-11T20:28:00.079Z,3.83
2019-02-11T20:30:28.324Z,5.00
2019-02-11T20:32:54.961Z,4.57
2019-02-11T20:35:21.348Z,4.63
2019-02-11T20:37:47.770Z,4.63
2019-02-11T20:40:27.969Z,4.67
2019-02-11T20:42:54.469Z,4.10
2019-02-11T20:45:26.300Z,3.00
2019-02-11T20:47:52.954Z,3.07
2019-02-11T20:50:19.488Z,4.00
2019-02-11T20:52:46.042Z,8.50
2019-02-11T20:55:13.173Z,4.80
2019-02-11T20:57:39.767Z,4.17
2019-02-11T21:00:10.563Z,4.60
2019-02-11T21:02:37.060Z,4.83
2019-02-11T21:05:06.426Z,5.10
2019-02-11T21:07:33.000Z,4.67
2019-02-11T21:09:59.469Z,4.87
2019-02-11T21:12:25.856Z,5.40
2019-02-11T21:14:52.335Z,5.40
2019-02-11T21:17:18.805Z,4.77
2019-02-11T21:19:45.421Z,5.50
2019-02-11T21:22:11.982Z,5.53
2019-02-11T21:24:38.432Z,5.17
2019-02-11T21:27:05.001Z,5.03
2019-02-11T21:29:31.435Z,4.80
2019-02-11T21:31:57.829Z,4.30
2019-02-11T21:34:24.351Z,4.27
2019-02-11T21:36:50.618Z,4.47
2019-02-11T21:39:17.045Z,4.00
2019-02-11T21:41:43.550Z,4.07
2019-02-11T21:44:09.987Z,3.70
2019-02-11T21:46:36.266Z,4.20
2019-02-11T21:49:02.750Z,4.10
2019-02-11T21:51:29.320Z,4.30
2019-02-11T21:53:55.727Z,3.43
2019-02-11T21:56:22.193Z,3.47
2019-02-11T21:58:48.619Z,3.83
2019-02-11T22:01:15.255Z,3.23
2019-02-11T22:03:41.616Z,3.17
2019-02-11T22:06:08.113Z,3.47
2019-02-11T22:08:34.552Z,2.90
2019-02-11T22:11:00.949Z,2.80
2019-02-11T22:13:27.465Z,2.67
2019-02-11T22:15:53.867Z,2.80
2019-02-11T22:18:20.448Z,2.63
2019-02-11T22:20:46.878Z,2.30
2019-02-11T22:23:13.301Z,2.60
2019-02-11T22:25:39.779Z,2.40
2019-02-11T22:28:06.361Z,2.20
2019-02-11T22:30:32.658Z,2.23
2019-02-11T22:33:00.950Z,2.10
2019-02-11T22:35:27.150Z,2.23
2019-02-11T22:37:53.730Z,1.70
2019-02-11T22:40:20.248Z,1.87
2019-02-11T22:42:46.758Z,1.90
2019-02-11T22:45:16.382Z,1.80
2019-02-11T22:47:42.903Z,1.90
2019-02-11T22:50:11.261Z,2.17
2019-02-11T22:52:37.793Z,2.23
2019-02-11T22:55:07.010Z,2.40
2019-02-11T22:57:33.333Z,1.90
2019-02-11T22:59:59.803Z,2.50
2019-02-11T23:02:26.390Z,2.20
2019-02-11T23:04:52.869Z,2.03
2019-02-11T23:07:19.390Z,1.80
2019-02-11T23:09:45.769Z,2.03
2019-02-11T23:12:12.203Z,2.30
2019-02-11T23:14:38.694Z,1.93
2019-02-11T23:17:05.211Z,2.30
2019-02-11T23:19:31.710Z,1.70
2019-02-11T23:21:57.970Z,1.90
2019-02-11T23:24:24.285Z,2.50
2019-02-11T23:26:50.717Z,3.20
2019-02-11T23:29:17.239Z,3.23
2019-02-11T23:31:43.714Z,2.67
2019-02-11T23:34:10.357Z,3.27
2019-02-11T23:36:36.879Z,2.30
2019-02-11T23:39:05.795Z,2.83
2019-02-11T23:41:32.297Z,2.20
2019-02-11T23:43:58.847Z,2.30
2019-02-11T23:46:25.398Z,2.60
2019-02-11T23:48:51.861Z,2.27
2019-02-11T23:51:18.234Z,2.77
2019-02-11T23:53:44.659Z,2.57
2019-02-11T23:56:11.181Z,2.57
2019-02-11T23:58:37.713Z,2.80
